createdAt,value
2019-05-23T00:01:56.736Z,2.60
2019-05-23T00:04:46.037Z,2.83
2019-05-23T00:07:33.885Z,2.43
2019-05-23T00:10:22.769Z,2.70
2019-05-23T00:13:00.382Z,2.63
2019-05-23T00:15:35.575Z,2.40
2019-05-23T00:18:06.223Z,2.43
2019-05-23T00:20:35.688Z,2.80
2019-05-23T00:23:05.368Z,2.37
2019-05-23T00:25:35.759Z,2.80
2019-05-23T00:28:06.979Z,2.87
2019-05-23T00:30:43.909Z,2.40
2019-05-23T00:33:16.007Z,2.60
2019-05-23T00:35:45.736Z,2.53
2019-05-23T00:38:17.634Z,2.70
2019-05-23T00:40:48.428Z,2.70
2019-05-23T00:43:18.072Z,2.97
2019-05-23T00:45:47.011Z,2.87
2019-05-23T00:48:18.445Z,2.63
2019-05-23T00:50:48.708Z,2.60
2019-05-23T00:53:18.395Z,2.80
2019-05-23T00:55:48.893Z,2.77
2019-05-23T00:58:19.334Z,2.90
2019-05-23T01:00:49.284Z,2.80
2019-05-23T01:03:18.715Z,2.93
2019-05-23T01:05:48.141Z,3.10
2019-05-23T01:08:21.704Z,2.60
2019-05-23T01:10:51.373Z,3.07
2019-05-23T01:13:20.689Z,2.97
2019-05-23T01:15:53.385Z,3.03
2019-05-23T01:18:22.759Z,3.20
2019-05-23T01:20:53.696Z,2.87
2019-05-23T01:23:24.144Z,2.80
2019-05-23T01:25:53.335Z,3.13
2019-05-23T01:28:22.992Z,3.07
2019-05-23T01:30:54.152Z,2.90
2019-05-23T01:33:23.618Z,3.00
2019-05-23T01:35:53.275Z,2.90
2019-05-23T01:38:22.691Z,3.20
2019-05-23T01:40:52.942Z,3.40
2019-05-23T01:43:25.466Z,2.80
2019-05-23T01:45:54.495Z,2.93
2019-05-23T01:48:24.197Z,3.23
2019-05-23T01:50:53.191Z,2.73
2019-05-23T01:53:22.233Z,2.50
2019-05-23T01:55:51.377Z,2.63
2019-05-23T01:58:20.731Z,2.50
2019-05-23T02:00:50.005Z,2.50
2019-05-23T02:03:19.365Z,2.43
2019-05-23T02:05:48.853Z,3.00
2019-05-23T02:08:18.047Z,2.70
2019-05-23T02:10:48.732Z,2.67
2019-05-23T02:13:18.207Z,2.80
2019-05-23T02:15:47.790Z,2.50
2019-05-23T02:18:18.186Z,2.77
2019-05-23T02:20:47.396Z,2.97
2019-05-23T02:23:18.155Z,2.70
2019-05-23T02:25:48.664Z,2.43
2019-05-23T02:28:17.584Z,2.50
2019-05-23T02:30:47.476Z,2.40
2019-05-23T02:33:17.453Z,2.67
2019-05-23T02:35:46.616Z,2.83
2019-05-23T02:38:29.266Z,2.70
2019-05-23T02:41:15.633Z,3.00
2019-05-23T02:43:46.935Z,2.70
2019-05-23T02:46:18.619Z,3.33
2019-05-23T02:48:49.411Z,2.90
2019-05-23T02:51:23.539Z,2.70
2019-05-23T02:53:54.051Z,3.00
2019-05-23T02:56:23.570Z,2.70
2019-05-23T02:59:10.983Z,2.83
2019-05-23T03:01:49.078Z,2.80
2019-05-23T03:04:25.808Z,3.00
2019-05-23T03:06:56.263Z,2.67
2019-05-23T03:09:27.661Z,2.73
2019-05-23T03:11:59.124Z,2.40
2019-05-23T03:14:29.452Z,3.10
2019-05-23T03:17:01.572Z,2.77
2019-05-23T03:19:32.315Z,2.80
2019-05-23T03:22:03.214Z,2.73
2019-05-23T03:24:33.483Z,2.53
2019-05-23T03:27:10.544Z,2.63
2019-05-23T03:29:40.604Z,2.70
2019-05-23T03:32:11.229Z,2.60
2019-05-23T03:34:41.992Z,2.70
2019-05-23T03:37:11.384Z,2.50
2019-05-23T03:39:40.625Z,2.80
2019-05-23T03:42:12.770Z,2.67
2019-05-23T03:44:49.325Z,2.40
2019-05-23T03:47:20.016Z,2.80
2019-05-23T03:49:49.178Z,2.70
2019-05-23T03:52:21.559Z,2.77
2019-05-23T03:54:52.584Z,2.97
2019-05-23T03:57:25.749Z,2.97
2019-05-23T03:59:53.827Z,2.60
2019-05-23T04:02:24.432Z,2.93
2019-05-23T04:04:57.273Z,2.70
2019-05-23T04:07:26.347Z,2.83
2019-05-23T04:13:13.417Z,2.70
2019-05-23T04:15:42.718Z,2.70
2019-05-23T04:18:13.304Z,2.60
2019-05-23T04:20:42.357Z,2.90
2019-05-23T04:23:11.629Z,2.90
2019-05-23T04:25:41.785Z,3.00
2019-05-23T04:28:13.345Z,2.93
2019-05-23T04:30:43.127Z,3.17
2019-05-23T04:33:12.383Z,3.13
2019-05-23T04:35:41.742Z,2.97
2019-05-23T04:38:12.599Z,3.33
2019-05-23T04:40:41.599Z,3.60
2019-05-23T04:43:10.522Z,3.30
2019-05-23T04:45:40.235Z,3.10
2019-05-23T04:48:09.407Z,2.70
2019-05-23T04:50:38.614Z,3.93
2019-05-23T04:53:08.444Z,3.77
2019-05-23T04:55:39.914Z,3.67
2019-05-23T04:58:09.790Z,3.80
2019-05-23T05:00:41.209Z,3.70
2019-05-23T05:03:12.301Z,3.83
2019-05-23T05:05:43.165Z,3.40
2019-05-23T05:08:17.653Z,3.53
2019-05-23T05:10:48.243Z,3.67
2019-05-23T05:13:17.588Z,4.00
2019-05-23T05:15:46.806Z,3.57
2019-05-23T05:18:16.192Z,3.87
2019-05-23T05:20:45.249Z,3.60
2019-05-23T05:23:14.400Z,3.93
2019-05-23T05:25:43.528Z,3.70
2019-05-23T05:28:13.012Z,3.70
2019-05-23T05:30:42.132Z,3.97
2019-05-23T05:33:11.437Z,4.40
2019-05-23T05:35:41.993Z,4.40
2019-05-23T05:38:11.000Z,5.40
2019-05-23T05:40:40.397Z,4.73
2019-05-23T05:43:10.037Z,4.20
2019-05-23T05:45:39.126Z,4.43
2019-05-23T05:48:08.119Z,5.07
2019-05-23T05:50:38.776Z,4.33
2019-05-23T05:53:08.863Z,4.20
2019-05-23T05:55:37.887Z,4.83
2019-05-23T05:58:07.591Z,5.10
2019-05-23T06:00:50.536Z,5.33
2019-05-23T06:03:20.601Z,4.20
2019-05-23T06:06:08.200Z,4.37
2019-05-23T06:08:40.556Z,4.90
2019-05-23T06:11:10.873Z,5.50
2019-05-23T06:13:40.315Z,4.90
2019-05-23T06:16:09.903Z,4.93
2019-05-23T06:18:39.135Z,4.60
2019-05-23T06:24:48.126Z,4.57
2019-05-23T06:27:15.136Z,5.73
2019-05-23T06:29:46.261Z,4.90
2019-05-23T06:32:18.141Z,4.77
2019-05-23T06:34:47.897Z,4.80
2019-05-23T06:37:17.572Z,5.83
2019-05-23T06:39:47.524Z,6.17
2019-05-23T06:42:17.354Z,5.70
2019-05-23T06:44:46.699Z,5.87
2019-05-23T06:47:17.712Z,5.70
2019-05-23T06:49:47.280Z,5.57
2019-05-23T06:52:17.214Z,5.47
2019-05-23T06:54:46.515Z,5.63
2019-05-23T06:57:15.878Z,5.77
2019-05-23T06:59:45.627Z,6.17
2019-05-23T07:02:15.260Z,5.67
2019-05-23T07:04:45.023Z,6.27
2019-05-23T07:07:15.081Z,5.50
2019-05-23T07:09:47.048Z,5.60
2019-05-23T07:12:16.681Z,5.53
2019-05-23T07:14:46.258Z,5.17
2019-05-23T07:17:17.840Z,6.10
2019-05-23T07:19:47.011Z,5.60
2019-05-23T07:22:19.010Z,5.10
2019-05-23T07:24:57.697Z,5.67
2019-05-23T07:27:23.114Z,5.33
2019-05-23T07:29:58.371Z,5.50
2019-05-23T07:32:28.189Z,5.00
2019-05-23T07:34:59.200Z,4.87
2019-05-23T07:37:28.579Z,5.37
2019-05-23T07:39:57.960Z,5.63
2019-05-23T07:42:27.383Z,5.37
2019-05-23T07:44:57.863Z,4.70
2019-05-23T07:47:29.335Z,4.93
2019-05-23T07:49:58.612Z,5.30
2019-05-23T07:52:28.309Z,4.87
2019-05-23T07:55:00.552Z,5.10
2019-05-23T07:57:29.925Z,4.77
2019-05-23T07:59:59.850Z,4.90
2019-05-23T08:02:35.429Z,5.20
2019-05-23T08:05:07.382Z,4.93
2019-05-23T08:07:37.637Z,5.20
2019-05-23T08:10:09.150Z,5.00
2019-05-23T08:12:38.672Z,5.20
2019-05-23T08:15:08.388Z,4.57
2019-05-23T08:17:38.308Z,4.93
2019-05-23T08:20:08.542Z,5.17
2019-05-23T08:22:38.853Z,6.03
2019-05-23T08:25:08.365Z,6.40
2019-05-23T08:27:37.789Z,5.70
2019-05-23T08:30:10.037Z,5.17
2019-05-23T08:32:40.026Z,5.43
2019-05-23T08:35:09.898Z,5.90
2019-05-23T08:37:39.831Z,5.20
2019-05-23T08:40:10.384Z,5.50
2019-05-23T08:42:40.385Z,4.80
2019-05-23T08:45:13.291Z,5.10
2019-05-23T08:47:42.760Z,5.10
2019-05-23T08:50:12.581Z,5.30
2019-05-23T08:52:42.184Z,4.70
2019-05-23T08:55:12.716Z,5.07
2019-05-23T08:57:42.833Z,5.10
2019-05-23T09:00:12.623Z,4.67
2019-05-23T09:02:44.189Z,5.33
2019-05-23T09:05:14.799Z,5.30
2019-05-23T09:07:44.857Z,4.43
2019-05-23T09:10:14.642Z,5.50
2019-05-23T09:12:44.541Z,5.10
2019-05-23T09:15:14.086Z,4.40
2019-05-23T09:17:53.181Z,4.47
2019-05-23T09:20:16.747Z,4.90
2019-05-23T09:22:46.153Z,4.80
2019-05-23T09:25:16.427Z,4.83
2019-05-23T09:27:47.823Z,5.10
2019-05-23T09:30:17.875Z,4.73
2019-05-23T09:32:47.292Z,4.13
2019-05-23T09:35:21.422Z,3.80
2019-05-23T09:37:51.751Z,4.23
2019-05-23T09:40:23.557Z,4.30
2019-05-23T09:42:52.815Z,4.70
2019-05-23T09:45:23.790Z,4.00
2019-05-23T09:47:54.311Z,4.03
2019-05-23T09:50:24.957Z,4.17
2019-05-23T09:52:54.405Z,3.80
2019-05-23T09:55:24.042Z,3.53
2019-05-23T09:57:53.620Z,3.47
2019-05-23T10:00:25.230Z,3.30
2019-05-23T10:02:55.026Z,3.43
2019-05-23T10:05:40.642Z,3.60
2019-05-23T10:07:57.026Z,3.90
2019-05-23T10:10:27.249Z,3.57
2019-05-23T10:12:59.978Z,3.47
2019-05-23T10:15:34.210Z,3.10
2019-05-23T10:18:03.639Z,3.33
2019-05-23T10:20:34.823Z,3.00
2019-05-23T10:23:05.875Z,3.83
2019-05-23T10:25:36.583Z,4.17
2019-05-23T10:28:06.614Z,3.73
2019-05-23T10:30:37.012Z,3.07
2019-05-23T10:33:12.271Z,3.40
2019-05-23T10:35:39.694Z,3.23
2019-05-23T10:38:11.875Z,3.37
2019-05-23T10:40:41.958Z,3.23
2019-05-23T10:43:11.765Z,3.43
2019-05-23T10:45:41.519Z,3.30
2019-05-23T10:48:14.319Z,2.93
2019-05-23T10:50:45.449Z,3.00
2019-05-23T10:53:17.865Z,3.10
2019-05-23T10:55:47.668Z,3.10
2019-05-23T10:58:17.922Z,3.10
2019-05-23T11:00:47.819Z,2.70
2019-05-23T11:03:18.793Z,2.70
2019-05-23T11:05:48.520Z,3.23
2019-05-23T11:08:18.148Z,2.97
2019-05-23T11:10:49.535Z,3.00
2019-05-23T11:13:20.197Z,3.10
2019-05-23T11:15:49.966Z,2.70
2019-05-23T11:18:22.172Z,2.63
2019-05-23T11:20:52.000Z,2.30
2019-05-23T11:23:24.882Z,3.20
2019-05-23T11:26:00.660Z,2.50
2019-05-23T11:28:29.380Z,2.93
2019-05-23T11:31:01.158Z,2.90
2019-05-23T11:33:31.353Z,2.70
2019-05-23T11:36:01.726Z,3.20
2019-05-23T11:38:31.491Z,3.23
2019-05-23T11:41:01.340Z,2.93
2019-05-23T11:43:32.895Z,3.00
2019-05-23T11:46:03.782Z,2.60
2019-05-23T11:48:34.770Z,2.73
2019-05-23T11:51:05.749Z,2.47
2019-05-23T11:53:37.642Z,2.40
2019-05-23T11:56:08.900Z,2.33
2019-05-23T11:58:38.772Z,2.40
2019-05-23T12:01:15.203Z,2.80
2019-05-23T12:03:45.920Z,2.40
2019-05-23T12:06:16.022Z,2.27
2019-05-23T12:08:45.619Z,2.80
2019-05-23T12:11:16.019Z,2.30
2019-05-23T12:13:46.100Z,2.83
2019-05-23T12:16:17.677Z,2.47
2019-05-23T12:18:47.417Z,2.50
2019-05-23T12:21:17.252Z,2.60
2019-05-23T12:23:47.765Z,2.40
2019-05-23T12:26:16.865Z,2.50
2019-05-23T12:28:46.967Z,2.40
2019-05-23T12:31:16.530Z,2.20
2019-05-23T12:33:48.234Z,2.63
2019-05-23T12:36:18.572Z,2.13
2019-05-23T12:38:48.065Z,2.40
2019-05-23T12:41:17.679Z,2.10
2019-05-23T12:43:47.247Z,2.47
2019-05-23T12:46:18.535Z,2.13
2019-05-23T12:48:56.457Z,2.40
2019-05-23T12:51:31.516Z,2.20
2019-05-23T12:54:01.359Z,1.90
2019-05-23T12:56:30.874Z,1.83
2019-05-23T12:59:00.406Z,2.40
2019-05-23T13:01:32.997Z,2.10
2019-05-23T13:04:02.197Z,2.10
2019-05-23T13:06:32.140Z,4.60
2019-05-23T13:09:01.703Z,2.40
2019-05-23T13:11:32.223Z,2.80
2019-05-23T13:14:01.602Z,2.63
2019-05-23T13:16:32.918Z,2.00
2019-05-23T13:19:02.435Z,1.90
2019-05-23T13:21:31.775Z,1.93
2019-05-23T13:24:01.130Z,1.97
2019-05-23T13:26:30.335Z,1.90
2019-05-23T13:28:59.553Z,2.00
2019-05-23T13:31:30.560Z,2.10
2019-05-23T13:33:59.999Z,2.10
2019-05-23T13:36:29.930Z,2.37
2019-05-23T13:38:59.537Z,2.53
2019-05-23T13:41:29.453Z,2.20
2019-05-23T13:43:59.846Z,2.00
2019-05-23T13:46:31.265Z,2.27
2019-05-23T13:49:01.668Z,2.40
2019-05-23T13:51:31.651Z,1.63
2019-05-23T13:54:01.362Z,2.07
2019-05-23T13:56:32.137Z,2.00
2019-05-23T13:59:01.993Z,2.00
2019-05-23T14:01:34.979Z,2.00
2019-05-23T14:04:05.281Z,2.00
2019-05-23T14:06:35.190Z,2.00
2019-05-23T14:09:05.820Z,1.93
2019-05-23T14:11:36.710Z,2.30
2019-05-23T14:14:07.626Z,2.07
2019-05-23T14:16:40.214Z,1.87
2019-05-23T14:19:10.313Z,1.97
2019-05-23T14:21:40.190Z,1.90
2019-05-23T14:24:10.034Z,1.70
2019-05-23T14:26:41.803Z,1.70
2019-05-23T14:29:12.731Z,2.10
2019-05-23T14:31:44.912Z,1.83
2019-05-23T14:34:16.446Z,2.30
2019-05-23T14:36:52.063Z,2.00
2019-05-23T14:39:30.164Z,2.30
2019-05-23T14:42:08.300Z,1.83
2019-05-23T14:44:38.007Z,2.07
2019-05-23T14:47:18.716Z,1.90
2019-05-23T14:50:04.964Z,2.00
2019-05-23T14:52:42.986Z,2.00
2019-05-23T14:55:13.731Z,2.10
2019-05-23T14:57:43.870Z,1.90
2019-05-23T15:00:14.094Z,2.03
2019-05-23T15:02:46.379Z,2.23
2019-05-23T15:05:17.838Z,2.33
2019-05-23T15:07:48.925Z,2.03
2019-05-23T15:10:20.028Z,2.20
2019-05-23T15:12:51.675Z,1.93
2019-05-23T15:15:21.371Z,1.87
2019-05-23T15:17:52.017Z,1.83
2019-05-23T15:20:22.652Z,1.90
2019-05-23T15:22:52.257Z,1.77
2019-05-23T15:25:23.381Z,1.90
2019-05-23T15:27:55.856Z,2.00
2019-05-23T15:30:25.556Z,2.10
2019-05-23T15:33:01.119Z,2.00
2019-05-23T15:35:32.473Z,1.90
2019-05-23T15:38:03.339Z,2.20
2019-05-23T15:40:32.823Z,2.10
2019-05-23T15:43:09.736Z,2.00
2019-05-23T15:45:41.490Z,2.00
2019-05-23T15:48:13.239Z,2.00
2019-05-23T15:50:47.668Z,2.13
2019-05-23T15:53:19.137Z,1.70
2019-05-23T15:55:58.177Z,2.00
2019-05-23T15:58:44.000Z,1.87
2019-05-23T16:01:24.998Z,1.80
2019-05-23T16:03:56.713Z,1.90
2019-05-23T16:06:27.629Z,1.80
2019-05-23T16:08:58.529Z,1.90
2019-05-23T16:11:29.195Z,1.80
2019-05-23T16:13:59.992Z,2.10
2019-05-23T16:16:31.361Z,1.87
2019-05-23T16:19:02.802Z,1.90
2019-05-23T16:21:33.116Z,1.80
2019-05-23T16:24:07.154Z,1.77
2019-05-23T16:26:40.711Z,1.83
2019-05-23T16:29:13.093Z,1.73
2019-05-23T16:31:43.736Z,1.73
2019-05-23T16:34:15.918Z,2.07
2019-05-23T16:36:46.959Z,1.83
2019-05-23T16:39:17.879Z,1.97
2019-05-23T16:41:47.879Z,1.83
2019-05-23T16:44:17.952Z,1.70
2019-05-23T16:46:50.577Z,1.67
2019-05-23T16:49:22.958Z,1.60
2019-05-23T16:51:54.910Z,2.03
2019-05-23T16:54:28.410Z,1.60
2019-05-23T16:57:17.676Z,2.00
2019-05-23T16:59:52.667Z,1.60
2019-05-23T17:02:28.492Z,1.80
2019-05-23T17:05:10.032Z,1.80
2019-05-23T17:07:33.706Z,1.77
2019-05-23T17:10:14.449Z,1.80
2019-05-23T17:13:03.965Z,1.80
2019-05-23T17:15:40.209Z,1.57
2019-05-23T17:18:27.636Z,1.83
2019-05-23T17:21:15.448Z,1.70
2019-05-23T17:23:53.038Z,1.70
2019-05-23T17:26:27.529Z,1.73
2019-05-23T17:29:01.295Z,1.87
2019-05-23T17:31:43.240Z,1.77
2019-05-23T17:34:15.011Z,1.70
2019-05-23T17:36:45.863Z,2.03
2019-05-23T17:39:19.828Z,1.57
2019-05-23T17:41:51.388Z,1.60
2019-05-23T17:44:21.654Z,1.60
2019-05-23T17:46:55.206Z,1.73
2019-05-23T17:49:26.126Z,1.73
2019-05-23T17:51:57.525Z,1.70
2019-05-23T17:54:29.871Z,1.70
2019-05-23T17:56:59.612Z,1.83
2019-05-23T17:59:31.388Z,1.60
2019-05-23T18:02:02.998Z,2.00
2019-05-23T18:04:33.190Z,1.90
2019-05-23T18:07:03.055Z,1.80
2019-05-23T18:09:34.888Z,1.80
2019-05-23T18:12:07.768Z,2.10
2019-05-23T18:14:37.655Z,2.13
2019-05-23T18:17:09.769Z,2.27
2019-05-23T18:19:41.818Z,1.73
2019-05-23T18:22:13.008Z,2.17
2019-05-23T18:24:43.207Z,2.20
2019-05-23T18:27:17.047Z,2.00
2019-05-23T18:29:49.251Z,2.07
2019-05-23T18:32:20.791Z,2.07
2019-05-23T18:34:51.034Z,2.00
2019-05-23T18:37:21.651Z,1.80
2019-05-23T18:39:55.032Z,2.00
2019-05-23T18:42:27.116Z,1.70
2019-05-23T18:44:58.993Z,2.00
2019-05-23T18:47:34.474Z,1.80
2019-05-23T18:50:07.329Z,1.93
2019-05-23T18:52:37.593Z,2.10
2019-05-23T18:55:10.766Z,1.97
2019-05-23T18:57:45.505Z,1.80
2019-05-23T19:00:17.788Z,1.90
2019-05-23T19:02:47.978Z,1.83
2019-05-23T19:05:19.912Z,2.00
2019-05-23T19:07:51.072Z,1.93
2019-05-23T19:10:21.178Z,2.00
2019-05-23T19:12:51.794Z,1.67
2019-05-23T19:15:22.321Z,2.10
2019-05-23T19:17:55.284Z,2.00
2019-05-23T19:20:26.749Z,2.10
2019-05-23T19:22:58.223Z,1.80
2019-05-23T19:25:30.196Z,1.90
2019-05-23T19:28:02.624Z,2.00
2019-05-23T19:30:31.914Z,2.00
2019-05-23T19:33:02.873Z,2.00
2019-05-23T19:35:34.472Z,1.90
2019-05-23T19:38:05.950Z,2.10
2019-05-23T19:40:37.137Z,2.20
2019-05-23T19:43:08.615Z,2.10
2019-05-23T19:45:39.427Z,2.13
2019-05-23T19:48:11.812Z,2.00
2019-05-23T19:50:41.245Z,2.20
2019-05-23T19:53:12.442Z,2.30
2019-05-23T19:55:42.019Z,2.23
2019-05-23T19:58:11.741Z,2.27
2019-05-23T20:00:42.299Z,1.97
2019-05-23T20:03:13.392Z,2.20
2019-05-23T20:05:45.026Z,2.10
2019-05-23T20:08:14.810Z,2.00
2019-05-23T20:10:44.797Z,2.13
2019-05-23T20:13:18.278Z,2.00
2019-05-23T20:15:46.291Z,2.20
2019-05-23T20:18:16.831Z,2.27
2019-05-23T20:20:48.326Z,2.10
2019-05-23T20:23:19.575Z,2.10
2019-05-23T20:25:49.266Z,2.30
2019-05-23T20:28:20.358Z,2.20
2019-05-23T20:30:51.647Z,2.40
2019-05-23T20:33:22.194Z,2.40
2019-05-23T20:35:52.867Z,2.30
2019-05-23T20:38:23.320Z,2.40
2019-05-23T20:40:53.983Z,2.33
2019-05-23T20:43:24.624Z,2.50
2019-05-23T20:45:54.095Z,2.43
2019-05-23T20:48:24.964Z,2.30
2019-05-23T20:50:54.539Z,2.50
2019-05-23T20:53:24.141Z,2.10
2019-05-23T20:55:55.312Z,2.80
2019-05-23T20:58:48.948Z,2.30
2019-05-23T21:01:22.134Z,2.43
2019-05-23T21:03:52.244Z,2.67
2019-05-23T21:06:21.691Z,2.40
2019-05-23T21:08:50.995Z,2.40
2019-05-23T21:11:20.107Z,2.40
2019-05-23T21:13:52.220Z,2.30
2019-05-23T21:16:23.627Z,2.77
2019-05-23T21:18:52.970Z,2.47
2019-05-23T21:21:22.376Z,2.40
2019-05-23T21:23:56.580Z,2.20
2019-05-23T21:26:25.459Z,2.50
2019-05-23T21:28:54.863Z,2.53
2019-05-23T21:31:24.542Z,2.60
2019-05-23T21:33:55.794Z,2.70
2019-05-23T21:36:25.337Z,2.53
2019-05-23T21:38:55.050Z,2.50
2019-05-23T21:41:24.147Z,2.53
2019-05-23T21:43:55.019Z,2.50
2019-05-23T21:46:24.515Z,2.37
2019-05-23T21:48:53.744Z,2.60
2019-05-23T21:51:24.109Z,2.40
2019-05-23T21:53:53.431Z,2.53
2019-05-23T21:56:22.612Z,2.20
2019-05-23T21:58:54.678Z,2.50
2019-05-23T22:01:25.586Z,2.40
2019-05-23T22:03:56.398Z,2.40
2019-05-23T22:06:30.232Z,2.50
2019-05-23T22:09:03.519Z,2.63
2019-05-23T22:11:33.152Z,2.80
2019-05-23T22:14:02.586Z,2.50
2019-05-23T22:16:32.190Z,2.73
2019-05-23T22:19:02.640Z,2.60
2019-05-23T22:21:31.903Z,2.47
2019-05-23T22:24:01.398Z,2.87
2019-05-23T22:26:30.683Z,2.70
2019-05-23T22:28:59.705Z,2.50
2019-05-23T22:31:29.302Z,2.33
2019-05-23T22:34:16.650Z,2.87
2019-05-23T22:36:45.810Z,2.60
2019-05-23T22:39:17.055Z,2.70
2019-05-23T22:41:46.947Z,2.67
2019-05-23T22:44:16.700Z,2.70
2019-05-23T22:46:46.254Z,2.47
2019-05-23T22:49:15.688Z,2.70
2019-05-23T22:51:45.524Z,2.80
2019-05-23T22:54:14.816Z,2.57
2019-05-23T22:56:44.207Z,3.00
2019-05-23T22:59:13.336Z,3.00
2019-05-23T23:01:42.970Z,2.60
2019-05-23T23:04:12.114Z,2.57
2019-05-23T23:06:42.523Z,2.70
2019-05-23T23:09:12.020Z,2.83
2019-05-23T23:11:41.239Z,2.87
2019-05-23T23:14:10.916Z,2.37
2019-05-23T23:16:40.186Z,2.77
2019-05-23T23:19:09.455Z,2.90
2019-05-23T23:21:38.820Z,2.60
2019-05-23T23:24:08.066Z,2.70
2019-05-23T23:26:37.650Z,2.80
2019-05-23T23:29:07.025Z,2.70
2019-05-23T23:31:36.318Z,2.80
2019-05-23T23:34:05.316Z,2.70
2019-05-23T23:36:34.310Z,2.93
2019-05-23T23:39:04.750Z,2.90
2019-05-23T23:41:34.020Z,2.73
2019-05-23T23:44:03.239Z,2.80
2019-05-23T23:46:50.853Z,2.87
2019-05-23T23:49:38.220Z,2.80
2019-05-23T23:52:26.021Z,2.70
2019-05-23T23:55:13.165Z,2.87
2019-05-23T23:58:00.142Z,2.80
